sensor_id;sensor_type;location;lat;lon;timestamp;P1;durP1;ratioP1;P2;durP2;ratioP2
48002;SDS011;33768;48.578;11.574;2022-07-12T00:01:05;2.57;;;2.37;;
48002;SDS011;33768;48.578;11.574;2022-07-12T00:04:09;2.93;;;2.00;;
48002;SDS011;33768;48.578;11.574;2022-07-12T00:07:14;1.93;;;1.80;;
48002;SDS011;33768;48.578;11.574;2022-07-12T00:10:18;2.33;;;2.03;;
48002;SDS011;33768;48.578;11.574;2022-07-12T00:13:22;4.20;;;2.00;;
48002;SDS011;33768;48.578;11.574;2022-07-12T00:16:26;2.47;;;2.27;;
48002;SDS011;33768;48.578;11.574;2022-07-12T00:19:30;2.47;;;2.10;;
48002;SDS011;33768;48.578;11.574;2022-07-12T00:22:35;4.13;;;2.53;;
48002;SDS011;33768;48.578;11.574;2022-07-12T00:25:39;3.30;;;2.57;;
48002;SDS011;33768;48.578;11.574;2022-07-12T00:28:43;3.13;;;2.87;;
48002;SDS011;33768;48.578;11.574;2022-07-12T00:31:48;2.80;;;2.60;;
48002;SDS011;33768;48.578;11.574;2022-07-12T00:34:52;3.03;;;2.73;;
48002;SDS011;33768;48.578;11.574;2022-07-12T00:37:57;2.80;;;2.50;;
48002;SDS011;33768;48.578;11.574;2022-07-12T00:41:01;3.00;;;2.70;;
48002;SDS011;33768;48.578;11.574;2022-07-12T00:44:05;5.37;;;2.90;;
48002;SDS011;33768;48.578;11.574;2022-07-12T00:47:17;2.70;;;2.50;;
48002;SDS011;33768;48.578;11.574;2022-07-12T00:50:28;2.90;;;2.60;;
48002;SDS011;33768;48.578;11.574;2022-07-12T00:53:32;3.03;;;2.77;;
48002;SDS011;33768;48.578;11.574;2022-07-12T00:56:36;3.20;;;2.57;;
48002;SDS011;33768;48.578;11.574;2022-07-12T00:59:40;2.80;;;2.53;;
48002;SDS011;33768;48.578;11.574;2022-07-12T01:02:45;2.50;;;2.30;;
48002;SDS011;33768;48.578;11.574;2022-07-12T01:05:50;2.43;;;2.20;;
48002;SDS011;33768;48.578;11.574;2022-07-12T01:08:56;3.67;;;2.70;;
48002;SDS011;33768;48.578;11.574;2022-07-12T01:12:00;2.80;;;2.30;;
48002;SDS011;33768;48.578;11.574;2022-07-12T01:15:05;2.50;;;2.30;;
48002;SDS011;33768;48.578;11.574;2022-07-12T01:18:09;2.30;;;2.10;;
48002;SDS011;33768;48.578;11.574;2022-07-12T01:21:16;3.67;;;2.17;;
48002;SDS011;33768;48.578;11.574;2022-07-12T01:24:23;2.33;;;2.13;;
48002;SDS011;33768;48.578;11.574;2022-07-12T01:27:28;2.60;;;2.30;;
48002;SDS011;33768;48.578;11.574;2022-07-12T01:30:32;2.30;;;2.10;;
48002;SDS011;33768;48.578;11.574;2022-07-12T01:33:36;3.17;;;2.50;;
48002;SDS011;33768;48.578;11.574;2022-07-12T01:36:40;2.03;;;1.93;;
48002;SDS011;33768;48.578;11.574;2022-07-12T01:39:45;2.43;;;2.23;;
48002;SDS011;33768;48.578;11.574;2022-07-12T01:42:51;2.00;;;1.90;;
48002;SDS011;33768;48.578;11.574;2022-07-12T01:45:55;2.23;;;2.00;;
48002;SDS011;33768;48.578;11.574;2022-07-12T01:48:59;2.20;;;2.00;;
48002;SDS011;33768;48.578;11.574;2022-07-12T01:52:04;2.33;;;2.13;;
48002;SDS011;33768;48.578;11.574;2022-07-12T01:55:09;2.23;;;2.03;;
48002;SDS011;33768;48.578;11.574;2022-07-12T01:58:14;3.07;;;2.20;;
48002;SDS011;33768;48.578;11.574;2022-07-12T02:01:20;3.10;;;2.80;;
48002;SDS011;33768;48.578;11.574;2022-07-12T02:04:24;2.33;;;2.13;;
48002;SDS011;33768;48.578;11.574;2022-07-12T02:07:29;2.17;;;1.80;;
48002;SDS011;33768;48.578;11.574;2022-07-12T02:10:33;2.50;;;1.90;;
48002;SDS011;33768;48.578;11.574;2022-07-12T02:13:37;2.60;;;2.40;;
48002;SDS011;33768;48.578;11.574;2022-07-12T02:16:41;2.70;;;2.50;;
48002;SDS011;33768;48.578;11.574;2022-07-12T02:19:46;2.67;;;1.93;;
48002;SDS011;33768;48.578;11.574;2022-07-12T02:22:50;2.27;;;2.07;;
48002;SDS011;33768;48.578;11.574;2022-07-12T02:25:54;3.37;;;1.80;;
48002;SDS011;33768;48.578;11.574;2022-07-12T02:28:58;3.13;;;2.00;;
48002;SDS011;33768;48.578;11.574;2022-07-12T02:32:02;2.17;;;1.97;;
48002;SDS011;33768;48.578;11.574;2022-07-12T02:35:07;2.27;;;2.07;;
48002;SDS011;33768;48.578;11.574;2022-07-12T02:38:11;3.10;;;2.33;;
48002;SDS011;33768;48.578;11.574;2022-07-12T02:41:15;3.17;;;2.20;;
48002;SDS011;33768;48.578;11.574;2022-07-12T02:44:20;2.37;;;2.17;;
48002;SDS011;33768;48.578;11.574;2022-07-12T02:47:24;2.47;;;2.27;;
48002;SDS011;33768;48.578;11.574;2022-07-12T02:50:28;2.80;;;2.50;;
48002;SDS011;33768;48.578;11.574;2022-07-12T02:53:32;3.00;;;2.70;;
48002;SDS011;33768;48.578;11.574;2022-07-12T02:56:37;2.60;;;2.40;;
48002;SDS011;33768;48.578;11.574;2022-07-12T02:59:41;3.37;;;2.47;;
48002;SDS011;33768;48.578;11.574;2022-07-12T03:02:46;2.30;;;2.10;;
48002;SDS011;33768;48.578;11.574;2022-07-12T03:05:50;5.10;;;2.30;;
48002;SDS011;33768;48.578;11.574;2022-07-12T03:08:54;2.50;;;2.30;;
48002;SDS011;33768;48.578;11.574;2022-07-12T03:11:58;2.53;;;2.20;;
48002;SDS011;33768;48.578;11.574;2022-07-12T03:15:03;5.30;;;2.40;;
48002;SDS011;33768;48.578;11.574;2022-07-12T03:18:08;2.40;;;2.20;;
48002;SDS011;33768;48.578;11.574;2022-07-12T03:21:13;2.40;;;2.07;;
48002;SDS011;33768;48.578;11.574;2022-07-12T03:24:17;2.20;;;2.00;;
48002;SDS011;33768;48.578;11.574;2022-07-12T03:27:21;3.90;;;2.00;;
48002;SDS011;33768;48.578;11.574;2022-07-12T03:30:25;2.43;;;2.23;;
48002;SDS011;33768;48.578;11.574;2022-07-12T03:33:30;2.47;;;2.00;;
48002;SDS011;33768;48.578;11.574;2022-07-12T03:36:35;2.40;;;2.20;;
48002;SDS011;33768;48.578;11.574;2022-07-12T03:39:39;3.10;;;1.93;;
48002;SDS011;33768;48.578;11.574;2022-07-12T03:42:43;2.70;;;2.17;;
48002;SDS011;33768;48.578;11.574;2022-07-12T03:45:48;3.83;;;2.47;;
48002;SDS011;33768;48.578;11.574;2022-07-12T03:48:52;2.67;;;2.43;;
48002;SDS011;33768;48.578;11.574;2022-07-12T03:51:56;2.37;;;2.17;;
48002;SDS011;33768;48.578;11.574;2022-07-12T03:55:00;2.67;;;2.00;;
48002;SDS011;33768;48.578;11.574;2022-07-12T03:58:07;2.20;;;2.00;;
48002;SDS011;33768;48.578;11.574;2022-07-12T04:01:11;3.93;;;2.03;;
48002;SDS011;33768;48.578;11.574;2022-07-12T04:04:16;3.70;;;2.50;;
48002;SDS011;33768;48.578;11.574;2022-07-12T04:07:20;3.07;;;2.10;;
48002;SDS011;33768;48.578;11.574;2022-07-12T04:10:25;1.90;;;1.80;;
48002;SDS011;33768;48.578;11.574;2022-07-12T04:13:29;4.23;;;2.60;;
48002;SDS011;33768;48.578;11.574;2022-07-12T04:16:33;2.60;;;2.17;;
48002;SDS011;33768;48.578;11.574;2022-07-12T04:19:37;2.70;;;2.30;;
48002;SDS011;33768;48.578;11.574;2022-07-12T04:22:42;2.87;;;2.10;;
48002;SDS011;33768;48.578;11.574;2022-07-12T04:25:46;3.60;;;2.00;;
48002;SDS011;33768;48.578;11.574;2022-07-12T04:28:50;2.77;;;2.10;;
48002;SDS011;33768;48.578;11.574;2022-07-12T04:31:54;2.40;;;2.20;;
48002;SDS011;33768;48.578;11.574;2022-07-12T04:34:58;2.07;;;1.90;;
48002;SDS011;33768;48.578;11.574;2022-07-12T04:38:03;2.10;;;1.90;;
48002;SDS011;33768;48.578;11.574;2022-07-12T04:41:07;4.73;;;2.17;;
48002;SDS011;33768;48.578;11.574;2022-07-12T04:44:11;3.07;;;1.93;;
48002;SDS011;33768;48.578;11.574;2022-07-12T04:47:15;2.50;;;2.07;;
48002;SDS011;33768;48.578;11.574;2022-07-12T04:50:20;2.80;;;2.00;;
48002;SDS011;33768;48.578;11.574;2022-07-12T04:53:24;3.40;;;2.10;;
48002;SDS011;33768;48.578;11.574;2022-07-12T04:56:28;2.30;;;2.10;;
48002;SDS011;33768;48.578;11.574;2022-07-12T04:59:32;2.77;;;2.47;;
48002;SDS011;33768;48.578;11.574;2022-07-12T05:02:36;2.50;;;2.30;;
48002;SDS011;33768;48.578;11.574;2022-07-12T05:05:40;2.43;;;2.23;;
48002;SDS011;33768;48.578;11.574;2022-07-12T05:08:44;2.60;;;2.40;;
48002;SDS011;33768;48.578;11.574;2022-07-12T05:11:49;2.30;;;2.10;;
48002;SDS011;33768;48.578;11.574;2022-07-12T05:14:53;2.53;;;2.33;;
48002;SDS011;33768;48.578;11.574;2022-07-12T05:17:57;2.90;;;2.57;;
48002;SDS011;33768;48.578;11.574;2022-07-12T05:21:01;4.77;;;2.57;;
48002;SDS011;33768;48.578;11.574;2022-07-12T05:24:05;2.97;;;2.67;;
48002;SDS011;33768;48.578;11.574;2022-07-12T05:27:10;2.60;;;2.40;;
48002;SDS011;33768;48.578;11.574;2022-07-12T05:30:14;3.00;;;2.30;;
48002;SDS011;33768;48.578;11.574;2022-07-12T05:33:18;3.40;;;2.70;;
48002;SDS011;33768;48.578;11.574;2022-07-12T05:36:22;3.30;;;2.23;;
48002;SDS011;33768;48.578;11.574;2022-07-12T05:39:26;2.03;;;1.83;;
48002;SDS011;33768;48.578;11.574;2022-07-12T05:42:30;3.67;;;2.10;;
48002;SDS011;33768;48.578;11.574;2022-07-12T05:45:35;3.07;;;2.23;;
48002;SDS011;33768;48.578;11.574;2022-07-12T05:48:39;2.50;;;1.93;;
48002;SDS011;33768;48.578;11.574;2022-07-12T05:51:43;2.23;;;1.90;;
48002;SDS011;33768;48.578;11.574;2022-07-12T05:55:06;4.33;;;2.10;;
48002;SDS011;33768;48.578;11.574;2022-07-12T05:58:10;2.23;;;2.03;;
48002;SDS011;33768;48.578;11.574;2022-07-12T06:01:14;2.60;;;2.20;;
48002;SDS011;33768;48.578;11.574;2022-07-12T06:04:18;2.47;;;2.23;;
48002;SDS011;33768;48.578;11.574;2022-07-12T06:07:22;2.50;;;1.97;;
48002;SDS011;33768;48.578;11.574;2022-07-12T06:10:26;1.80;;;1.60;;
48002;SDS011;33768;48.578;11.574;2022-07-12T06:13:30;2.50;;;1.50;;
48002;SDS011;33768;48.578;11.574;2022-07-12T06:16:34;2.87;;;1.53;;
48002;SDS011;33768;48.578;11.574;2022-07-12T06:19:39;1.70;;;1.50;;
48002;SDS011;33768;48.578;11.574;2022-07-12T06:22:43;3.67;;;1.30;;
48002;SDS011;33768;48.578;11.574;2022-07-12T06:25:48;1.27;;;1.07;;
48002;SDS011;33768;48.578;11.574;2022-07-12T06:28:52;2.40;;;1.43;;
48002;SDS011;33768;48.578;11.574;2022-07-12T06:31:56;6.40;;;1.40;;
48002;SDS011;33768;48.578;11.574;2022-07-12T06:35:00;1.70;;;1.40;;
48002;SDS011;33768;48.578;11.574;2022-07-12T06:38:04;5.73;;;1.60;;
48002;SDS011;33768;48.578;11.574;2022-07-12T06:41:08;2.47;;;1.63;;
48002;SDS011;33768;48.578;11.574;2022-07-12T06:44:12;3.13;;;1.60;;
48002;SDS011;33768;48.578;11.574;2022-07-12T06:47:16;2.00;;;1.73;;
48002;SDS011;33768;48.578;11.574;2022-07-12T06:50:20;2.47;;;1.40;;
48002;SDS011;33768;48.578;11.574;2022-07-12T06:53:25;1.57;;;1.30;;
48002;SDS011;33768;48.578;11.574;2022-07-12T06:56:30;1.80;;;1.23;;
48002;SDS011;33768;48.578;11.574;2022-07-12T06:59:34;1.73;;;1.50;;
48002;SDS011;33768;48.578;11.574;2022-07-12T07:02:38;2.13;;;1.40;;
48002;SDS011;33768;48.578;11.574;2022-07-12T07:05:45;2.60;;;1.40;;
48002;SDS011;33768;48.578;11.574;2022-07-12T07:08:49;2.77;;;1.40;;
48002;SDS011;33768;48.578;11.574;2022-07-12T07:11:53;1.30;;;1.20;;
48002;SDS011;33768;48.578;11.574;2022-07-12T07:14:57;2.20;;;1.17;;
48002;SDS011;33768;48.578;11.574;2022-07-12T07:18:02;1.53;;;1.43;;
48002;SDS011;33768;48.578;11.574;2022-07-12T07:21:06;1.60;;;1.10;;
48002;SDS011;33768;48.578;11.574;2022-07-12T07:24:10;1.83;;;1.10;;
48002;SDS011;33768;48.578;11.574;2022-07-12T07:27:14;1.40;;;1.27;;
48002;SDS011;33768;48.578;11.574;2022-07-12T07:30:18;1.90;;;1.30;;
48002;SDS011;33768;48.578;11.574;2022-07-12T07:33:41;2.80;;;1.23;;
48002;SDS011;33768;48.578;11.574;2022-07-12T07:36:45;1.00;;;0.90;;
48002;SDS011;33768;48.578;11.574;2022-07-12T07:39:49;0.83;;;0.83;;
48002;SDS011;33768;48.578;11.574;2022-07-12T07:42:54;1.67;;;1.03;;
48002;SDS011;33768;48.578;11.574;2022-07-12T07:45:58;0.90;;;0.77;;
48002;SDS011;33768;48.578;11.574;2022-07-12T07:49:02;2.93;;;0.63;;
48002;SDS011;33768;48.578;11.574;2022-07-12T07:52:07;0.80;;;0.80;;
48002;SDS011;33768;48.578;11.574;2022-07-12T07:55:11;2.37;;;0.83;;
48002;SDS011;33768;48.578;11.574;2022-07-12T07:58:15;1.13;;;0.70;;
48002;SDS011;33768;48.578;11.574;2022-07-12T08:01:19;2.20;;;0.80;;
48002;SDS011;33768;48.578;11.574;2022-07-12T08:04:24;3.47;;;0.80;;
48002;SDS011;33768;48.578;11.574;2022-07-12T08:07:28;0.67;;;0.67;;
48002;SDS011;33768;48.578;11.574;2022-07-12T08:10:32;0.93;;;0.60;;
48002;SDS011;33768;48.578;11.574;2022-07-12T08:13:37;1.30;;;0.80;;
48002;SDS011;33768;48.578;11.574;2022-07-12T08:16:41;5.30;;;0.73;;
48002;SDS011;33768;48.578;11.574;2022-07-12T08:19:45;1.67;;;0.77;;
48002;SDS011;33768;48.578;11.574;2022-07-12T08:22:49;2.88;;;0.73;;
48002;SDS011;33768;48.578;11.574;2022-07-12T08:25:53;0.85;;;0.65;;
48002;SDS011;33768;48.578;11.574;2022-07-12T08:28:57;1.50;;;0.88;;
48002;SDS011;33768;48.578;11.574;2022-07-12T08:32:01;2.15;;;0.82;;
48002;SDS011;33768;48.578;11.574;2022-07-12T08:35:06;1.58;;;0.70;;
48002;SDS011;33768;48.578;11.574;2022-07-12T08:38:10;2.63;;;0.65;;
48002;SDS011;33768;48.578;11.574;2022-07-12T08:41:14;1.33;;;0.75;;
48002;SDS011;33768;48.578;11.574;2022-07-12T08:44:18;2.97;;;0.82;;
48002;SDS011;33768;48.578;11.574;2022-07-12T08:47:23;1.20;;;0.80;;
48002;SDS011;33768;48.578;11.574;2022-07-12T08:50:28;1.67;;;0.80;;
48002;SDS011;33768;48.578;11.574;2022-07-12T08:53:32;1.10;;;0.60;;
48002;SDS011;33768;48.578;11.574;2022-07-12T08:56:37;3.72;;;0.90;;
48002;SDS011;33768;48.578;11.574;2022-07-12T08:59:49;0.90;;;0.60;;
48002;SDS011;33768;48.578;11.574;2022-07-12T09:03:03;1.08;;;0.75;;
48002;SDS011;33768;48.578;11.574;2022-07-12T09:06:07;1.02;;;0.77;;
48002;SDS011;33768;48.578;11.574;2022-07-12T09:12:39;1.20;;;0.63;;
48002;SDS011;33768;48.578;11.574;2022-07-12T09:15:44;1.75;;;0.80;;
48002;SDS011;33768;48.578;11.574;2022-07-12T09:19:10;2.38;;;1.00;;
48002;SDS011;33768;48.578;11.574;2022-07-12T09:22:20;2.00;;;0.50;;
48002;SDS011;33768;48.578;11.574;2022-07-12T09:25:24;1.85;;;0.50;;
48002;SDS011;33768;48.578;11.574;2022-07-12T09:28:28;0.88;;;0.68;;
48002;SDS011;33768;48.578;11.574;2022-07-12T09:31:39;0.70;;;0.45;;
48002;SDS011;33768;48.578;11.574;2022-07-12T09:34:44;1.60;;;0.50;;
48002;SDS011;33768;48.578;11.574;2022-07-12T09:38:18;0.98;;;0.60;;
48002;SDS011;33768;48.578;11.574;2022-07-12T09:41:22;1.02;;;0.60;;
48002;SDS011;33768;48.578;11.574;2022-07-12T09:44:26;0.90;;;0.80;;
48002;SDS011;33768;48.578;11.574;2022-07-12T09:47:34;0.82;;;0.60;;
48002;SDS011;33768;48.578;11.574;2022-07-12T09:50:39;2.28;;;0.80;;
48002;SDS011;33768;48.578;11.574;2022-07-12T09:53:44;3.70;;;0.63;;
48002;SDS011;33768;48.578;11.574;2022-07-12T09:56:49;1.08;;;0.73;;
48002;SDS011;33768;48.578;11.574;2022-07-12T09:59:57;1.50;;;0.75;;
48002;SDS011;33768;48.578;11.574;2022-07-12T10:03:02;0.77;;;0.68;;
48002;SDS011;33768;48.578;11.574;2022-07-12T10:06:07;1.52;;;0.75;;
48002;SDS011;33768;48.578;11.574;2022-07-12T10:09:11;1.10;;;0.75;;
48002;SDS011;33768;48.578;11.574;2022-07-12T10:12:17;1.75;;;0.65;;
48002;SDS011;33768;48.578;11.574;2022-07-12T10:15:25;3.45;;;1.00;;
48002;SDS011;33768;48.578;11.574;2022-07-12T10:18:30;2.50;;;1.48;;
48002;SDS011;33768;48.578;11.574;2022-07-12T10:21:38;1.77;;;0.70;;
48002;SDS011;33768;48.578;11.574;2022-07-12T10:27:48;3.95;;;0.65;;
48002;SDS011;33768;48.578;11.574;2022-07-12T10:30:53;0.82;;;0.70;;
48002;SDS011;33768;48.578;11.574;2022-07-12T10:34:10;1.38;;;0.63;;
48002;SDS011;33768;48.578;11.574;2022-07-12T10:37:23;1.15;;;0.80;;
48002;SDS011;33768;48.578;11.574;2022-07-12T10:40:28;0.77;;;0.65;;
48002;SDS011;33768;48.578;11.574;2022-07-12T10:43:37;2.45;;;0.60;;
48002;SDS011;33768;48.578;11.574;2022-07-12T10:47:00;0.93;;;0.55;;
48002;SDS011;33768;48.578;11.574;2022-07-12T10:50:05;0.63;;;0.50;;
48002;SDS011;33768;48.578;11.574;2022-07-12T10:56:23;1.88;;;0.80;;
48002;SDS011;33768;48.578;11.574;2022-07-12T10:59:29;3.20;;;0.70;;
48002;SDS011;33768;48.578;11.574;2022-07-12T11:02:37;1.42;;;0.82;;
48002;SDS011;33768;48.578;11.574;2022-07-12T11:05:41;2.45;;;0.80;;
48002;SDS011;33768;48.578;11.574;2022-07-12T11:08:46;0.60;;;0.60;;
48002;SDS011;33768;48.578;11.574;2022-07-12T11:11:52;4.18;;;0.73;;
48002;SDS011;33768;48.578;11.574;2022-07-12T11:14:58;0.60;;;0.60;;
48002;SDS011;33768;48.578;11.574;2022-07-12T11:18:02;2.05;;;0.60;;
48002;SDS011;33768;48.578;11.574;2022-07-12T11:21:06;0.65;;;0.50;;
48002;SDS011;33768;48.578;11.574;2022-07-12T11:24:23;2.35;;;0.60;;
48002;SDS011;33768;48.578;11.574;2022-07-12T11:27:29;2.80;;;0.75;;
48002;SDS011;33768;48.578;11.574;2022-07-12T11:30:33;3.72;;;2.15;;
48002;SDS011;33768;48.578;11.574;2022-07-12T11:33:42;1.73;;;0.70;;
48002;SDS011;33768;48.578;11.574;2022-07-12T11:36:53;0.60;;;0.52;;
48002;SDS011;33768;48.578;11.574;2022-07-12T11:39:58;1.95;;;0.70;;
48002;SDS011;33768;48.578;11.574;2022-07-12T11:43:02;1.45;;;0.80;;
48002;SDS011;33768;48.578;11.574;2022-07-12T11:46:08;0.82;;;0.63;;
48002;SDS011;33768;48.578;11.574;2022-07-12T11:49:14;0.50;;;0.50;;
48002;SDS011;33768;48.578;11.574;2022-07-12T11:52:19;1.10;;;0.70;;
48002;SDS011;33768;48.578;11.574;2022-07-12T11:55:25;1.33;;;0.70;;
48002;SDS011;33768;48.578;11.574;2022-07-12T11:58:29;1.70;;;0.70;;
48002;SDS011;33768;48.578;11.574;2022-07-12T12:01:33;1.67;;;0.68;;
48002;SDS011;33768;48.578;11.574;2022-07-12T12:04:44;0.88;;;0.60;;
48002;SDS011;33768;48.578;11.574;2022-07-12T12:07:56;0.90;;;0.70;;
48002;SDS011;33768;48.578;11.574;2022-07-12T12:11:00;1.25;;;0.70;;
48002;SDS011;33768;48.578;11.574;2022-07-12T12:14:04;1.00;;;0.60;;
48002;SDS011;33768;48.578;11.574;2022-07-12T12:17:12;2.25;;;0.68;;
48002;SDS011;33768;48.578;11.574;2022-07-12T12:20:18;3.17;;;0.50;;
48002;SDS011;33768;48.578;11.574;2022-07-12T12:23:23;0.98;;;0.80;;
48002;SDS011;33768;48.578;11.574;2022-07-12T12:26:30;1.42;;;0.70;;
48002;SDS011;33768;48.578;11.574;2022-07-12T12:29:40;1.15;;;0.63;;
48002;SDS011;33768;48.578;11.574;2022-07-12T12:35:56;0.75;;;0.55;;
48002;SDS011;33768;48.578;11.574;2022-07-12T12:39:28;1.33;;;0.70;;
48002;SDS011;33768;48.578;11.574;2022-07-12T12:42:32;0.80;;;0.50;;
48002;SDS011;33768;48.578;11.574;2022-07-12T12:45:44;1.38;;;0.70;;
48002;SDS011;33768;48.578;11.574;2022-07-12T12:48:52;1.00;;;0.77;;
48002;SDS011;33768;48.578;11.574;2022-07-12T12:51:57;2.10;;;0.70;;
48002;SDS011;33768;48.578;11.574;2022-07-12T12:55:04;0.85;;;0.50;;
48002;SDS011;33768;48.578;11.574;2022-07-12T12:58:08;1.80;;;0.55;;
48002;SDS011;33768;48.578;11.574;2022-07-12T13:01:13;0.82;;;0.70;;
48002;SDS011;33768;48.578;11.574;2022-07-12T13:04:17;2.97;;;0.70;;
48002;SDS011;33768;48.578;11.574;2022-07-12T13:07:22;3.78;;;0.68;;
48002;SDS011;33768;48.578;11.574;2022-07-12T13:10:26;0.65;;;0.52;;
48002;SDS011;33768;48.578;11.574;2022-07-12T13:13:30;0.88;;;0.50;;
48002;SDS011;33768;48.578;11.574;2022-07-12T13:16:35;2.28;;;0.47;;
48002;SDS011;33768;48.578;11.574;2022-07-12T13:19:39;0.93;;;0.50;;
48002;SDS011;33768;48.578;11.574;2022-07-12T13:22:43;0.75;;;0.63;;
48002;SDS011;33768;48.578;11.574;2022-07-12T13:25:48;2.67;;;0.50;;
48002;SDS011;33768;48.578;11.574;2022-07-12T13:28:53;0.60;;;0.50;;
48002;SDS011;33768;48.578;11.574;2022-07-12T13:31:57;1.25;;;0.40;;
48002;SDS011;33768;48.578;11.574;2022-07-12T13:35:02;1.33;;;0.57;;
48002;SDS011;33768;48.578;11.574;2022-07-12T13:38:08;1.73;;;0.43;;
48002;SDS011;33768;48.578;11.574;2022-07-12T13:41:12;0.70;;;0.50;;
48002;SDS011;33768;48.578;11.574;2022-07-12T13:44:16;0.40;;;0.40;;
48002;SDS011;33768;48.578;11.574;2022-07-12T13:47:21;0.40;;;0.35;;
48002;SDS011;33768;48.578;11.574;2022-07-12T13:50:26;0.93;;;0.57;;
48002;SDS011;33768;48.578;11.574;2022-07-12T13:53:30;1.20;;;0.43;;
48002;SDS011;33768;48.578;11.574;2022-07-12T13:56:35;3.17;;;0.40;;
48002;SDS011;33768;48.578;11.574;2022-07-12T13:59:39;1.50;;;0.50;;
48002;SDS011;33768;48.578;11.574;2022-07-12T14:02:44;0.82;;;0.45;;
48002;SDS011;33768;48.578;11.574;2022-07-12T14:05:52;0.60;;;0.40;;
48002;SDS011;33768;48.578;11.574;2022-07-12T14:08:56;1.10;;;0.50;;
48002;SDS011;33768;48.578;11.574;2022-07-12T14:12:01;0.90;;;0.50;;
48002;SDS011;33768;48.578;11.574;2022-07-12T14:15:06;1.65;;;0.60;;
48002;SDS011;33768;48.578;11.574;2022-07-12T14:18:39;3.97;;;0.60;;
48002;SDS011;33768;48.578;11.574;2022-07-12T14:21:43;0.60;;;0.50;;
48002;SDS011;33768;48.578;11.574;2022-07-12T14:24:48;1.00;;;0.63;;
48002;SDS011;33768;48.578;11.574;2022-07-12T14:27:52;2.25;;;0.50;;
48002;SDS011;33768;48.578;11.574;2022-07-12T14:30:56;2.15;;;0.57;;
48002;SDS011;33768;48.578;11.574;2022-07-12T14:34:00;2.20;;;0.60;;
48002;SDS011;33768;48.578;11.574;2022-07-12T14:37:05;4.07;;;0.57;;
48002;SDS011;33768;48.578;11.574;2022-07-12T14:40:09;2.58;;;0.80;;
48002;SDS011;33768;48.578;11.574;2022-07-12T14:43:16;1.25;;;0.50;;
48002;SDS011;33768;48.578;11.574;2022-07-12T14:46:21;0.50;;;0.50;;
48002;SDS011;33768;48.578;11.574;2022-07-12T14:49:25;1.17;;;0.45;;
48002;SDS011;33768;48.578;11.574;2022-07-12T14:52:29;0.50;;;0.47;;
48002;SDS011;33768;48.578;11.574;2022-07-12T14:55:34;1.42;;;0.40;;
48002;SDS011;33768;48.578;11.574;2022-07-12T14:58:38;2.67;;;0.40;;
48002;SDS011;33768;48.578;11.574;2022-07-12T15:01:42;1.58;;;0.50;;
48002;SDS011;33768;48.578;11.574;2022-07-12T15:04:46;2.13;;;0.55;;
48002;SDS011;33768;48.578;11.574;2022-07-12T15:07:50;0.80;;;0.50;;
48002;SDS011;33768;48.578;11.574;2022-07-12T15:10:55;0.70;;;0.50;;
48002;SDS011;33768;48.578;11.574;2022-07-12T15:14:00;0.52;;;0.45;;
48002;SDS011;33768;48.578;11.574;2022-07-12T15:17:04;0.60;;;0.40;;
48002;SDS011;33768;48.578;11.574;2022-07-12T15:20:08;1.67;;;0.50;;
48002;SDS011;33768;48.578;11.574;2022-07-12T15:23:12;0.50;;;0.50;;
48002;SDS011;33768;48.578;11.574;2022-07-12T15:26:16;3.00;;;0.73;;
48002;SDS011;33768;48.578;11.574;2022-07-12T15:29:21;0.40;;;0.40;;
48002;SDS011;33768;48.578;11.574;2022-07-12T15:32:25;1.67;;;0.60;;
48002;SDS011;33768;48.578;11.574;2022-07-12T15:35:30;0.65;;;0.40;;
48002;SDS011;33768;48.578;11.574;2022-07-12T15:38:34;1.27;;;0.40;;
48002;SDS011;33768;48.578;11.574;2022-07-12T15:41:38;2.13;;;0.60;;
48002;SDS011;33768;48.578;11.574;2022-07-12T15:44:43;0.50;;;0.40;;
48002;SDS011;33768;48.578;11.574;2022-07-12T15:47:48;1.50;;;0.40;;
48002;SDS011;33768;48.578;11.574;2022-07-12T15:50:52;1.58;;;0.40;;
48002;SDS011;33768;48.578;11.574;2022-07-12T15:53:56;2.13;;;0.43;;
48002;SDS011;33768;48.578;11.574;2022-07-12T15:57:00;1.27;;;0.30;;
48002;SDS011;33768;48.578;11.574;2022-07-12T16:00:05;2.05;;;0.60;;
48002;SDS011;33768;48.578;11.574;2022-07-12T16:03:10;0.70;;;0.50;;
48002;SDS011;33768;48.578;11.574;2022-07-12T16:06:14;0.98;;;0.40;;
48002;SDS011;33768;48.578;11.574;2022-07-12T16:09:19;5.68;;;0.60;;
48002;SDS011;33768;48.578;11.574;2022-07-12T16:12:24;1.08;;;0.40;;
48002;SDS011;33768;48.578;11.574;2022-07-12T16:15:28;1.17;;;0.60;;
48002;SDS011;33768;48.578;11.574;2022-07-12T16:18:33;0.68;;;0.40;;
48002;SDS011;33768;48.578;11.574;2022-07-12T16:21:38;2.17;;;0.70;;
48002;SDS011;33768;48.578;11.574;2022-07-12T16:24:42;0.50;;;0.40;;
48002;SDS011;33768;48.578;11.574;2022-07-12T16:27:46;0.90;;;0.60;;
48002;SDS011;33768;48.578;11.574;2022-07-12T16:30:51;0.52;;;0.50;;
48002;SDS011;33768;48.578;11.574;2022-07-12T16:33:55;0.90;;;0.70;;
48002;SDS011;33768;48.578;11.574;2022-07-12T16:36:59;0.60;;;0.50;;
48002;SDS011;33768;48.578;11.574;2022-07-12T16:40:03;1.30;;;0.60;;
48002;SDS011;33768;48.578;11.574;2022-07-12T16:43:07;0.50;;;0.50;;
48002;SDS011;33768;48.578;11.574;2022-07-12T16:46:12;0.68;;;0.60;;
48002;SDS011;33768;48.578;11.574;2022-07-12T16:49:16;1.48;;;0.52;;
48002;SDS011;33768;48.578;11.574;2022-07-12T16:52:20;1.00;;;0.60;;
48002;SDS011;33768;48.578;11.574;2022-07-12T16:55:24;0.40;;;0.40;;
48002;SDS011;33768;48.578;11.574;2022-07-12T16:58:28;0.75;;;0.50;;
48002;SDS011;33768;48.578;11.574;2022-07-12T17:01:37;0.65;;;0.40;;
48002;SDS011;33768;48.578;11.574;2022-07-12T17:04:56;1.92;;;0.63;;
48002;SDS011;33768;48.578;11.574;2022-07-12T17:10:06;0.68;;;0.50;;
48002;SDS011;33768;48.578;11.574;2022-07-12T17:13:11;0.50;;;0.47;;
48002;SDS011;33768;48.578;11.574;2022-07-12T17:16:15;1.90;;;0.50;;
48002;SDS011;33768;48.578;11.574;2022-07-12T17:19:20;0.50;;;0.50;;
48002;SDS011;33768;48.578;11.574;2022-07-12T17:22:24;1.13;;;0.60;;
48002;SDS011;33768;48.578;11.574;2022-07-12T17:25:28;1.50;;;0.80;;
48002;SDS011;33768;48.578;11.574;2022-07-12T17:28:32;0.93;;;0.60;;
48002;SDS011;33768;48.578;11.574;2022-07-12T17:31:36;0.57;;;0.57;;
48002;SDS011;33768;48.578;11.574;2022-07-12T17:34:41;3.97;;;0.80;;
48002;SDS011;33768;48.578;11.574;2022-07-12T17:37:45;0.90;;;0.67;;
48002;SDS011;33768;48.578;11.574;2022-07-12T17:40:53;1.13;;;0.60;;
48002;SDS011;33768;48.578;11.574;2022-07-12T17:43:58;2.20;;;0.70;;
48002;SDS011;33768;48.578;11.574;2022-07-12T17:47:02;1.00;;;0.67;;
48002;SDS011;33768;48.578;11.574;2022-07-12T17:50:07;1.23;;;0.60;;
48002;SDS011;33768;48.578;11.574;2022-07-12T17:53:15;2.67;;;0.67;;
48002;SDS011;33768;48.578;11.574;2022-07-12T17:56:19;5.03;;;0.53;;
48002;SDS011;33768;48.578;11.574;2022-07-12T17:59:23;1.87;;;0.60;;
48002;SDS011;33768;48.578;11.574;2022-07-12T18:02:28;5.13;;;0.70;;
48002;SDS011;33768;48.578;11.574;2022-07-12T18:05:32;1.07;;;0.53;;
48002;SDS011;33768;48.578;11.574;2022-07-12T18:08:36;1.10;;;0.63;;
48002;SDS011;33768;48.578;11.574;2022-07-12T18:11:40;1.63;;;0.47;;
48002;SDS011;33768;48.578;11.574;2022-07-12T18:15:03;2.13;;;0.70;;
48002;SDS011;33768;48.578;11.574;2022-07-12T18:18:07;2.30;;;0.60;;
48002;SDS011;33768;48.578;11.574;2022-07-12T18:21:11;6.23;;;1.03;;
48002;SDS011;33768;48.578;11.574;2022-07-12T18:24:16;3.90;;;0.70;;
48002;SDS011;33768;48.578;11.574;2022-07-12T18:27:20;3.20;;;0.70;;
48002;SDS011;33768;48.578;11.574;2022-07-12T18:30:24;3.43;;;0.60;;
48002;SDS011;33768;48.578;11.574;2022-07-12T18:33:34;0.80;;;0.60;;